Aviation Digital Data Service (ADDS)

Output produced by METARs form (1856 UTC 24 June 2017)
found at http://aviationweather.gov/adds/metars/
 
KSTS 241853Z VRB03KT 10SM FEW050 23/13 A2994 RMK AO2 SLP132 T02280128
KSTS 241720Z 2418/2518 19005KT P6SM SCT020 
     FM242000 17011KT P6SM FEW025 FEW200 
     FM250400 16007KT P6SM SCT007 
     FM250600 VRB03KT P6SM OVC006 
     FM251600 VRB03KT P6SM SCT010